Portada
METAR-TAF:

METAR-TAF

Aeroports :

Ocala International Airport (Jim Taylor Field)

Ocala, Florida, Estats Units d'Amèrica

latitud: 29-10N, longitud: 082-13W, altitud: 27 m

Observació

L'informe es va fer fa 19 minuts, a les 20:51 UTC
Vent 4 kt amb direcció variable
Temperatura 26°C
Humitat 65%
Pressió 1018 hPa
Visibilitat: 16.1 km
Cel ennuvolat a una alçada de 3700 ft
Cel ennuvolat a una alçada de 4700 ft
Cel cobert a una alçada de 5500 ft

METAR: KOCF 172051Z VRB04KT 10SM BKN037 BKN047 OVC055 26/19 A3005 RMK AO2 SLP177 6//// T02610189 56013 $

Hora: 16:10 (21:10 UTC)


TAF: manca

Observacions i pronòstics meteorològics de més de 4000 aeroports (METAR i TAF).

Les estacions disponibles són els punts grocs i vermells al mapa.

Posi el ratolí al punt desitjat per veure el nom de l'estació.

Feu clic per veure les observacions i els pronòstics meteorològics.

Per canviar el mapa: feu clic els botons verds amb una creu de color negre per apropar; al botó verd amb un guió per allunyar la imatge; o en les fletxes verdes per a mapes adjacents.


METAR-TAF: